createdAt,value
2023-02-02T00:01:39.502Z,79.49
2023-02-02T00:06:46.180Z,79.56
2023-02-02T00:11:51.722Z,79.74
2023-02-02T00:16:57.791Z,79.62
2023-02-02T00:22:03.454Z,79.66
2023-02-02T00:27:10.304Z,79.69
2023-02-02T00:32:15.850Z,79.59
2023-02-02T00:37:22.140Z,79.64
2023-02-02T00:42:27.642Z,79.68
2023-02-02T00:47:33.146Z,79.74
2023-02-02T00:52:38.752Z,79.62
2023-02-02T00:57:45.692Z,79.65
2023-02-02T01:02:51.550Z,79.80
2023-02-02T01:07:57.051Z,79.82
2023-02-02T01:13:02.925Z,79.80
2023-02-02T01:18:10.547Z,79.85
2023-02-02T01:23:16.051Z,79.75
2023-02-02T01:28:21.600Z,79.72
2023-02-02T01:33:27.147Z,79.64
2023-02-02T01:38:32.709Z,79.76
2023-02-02T01:43:56.651Z,79.78
2023-02-02T01:49:04.142Z,79.71
2023-02-02T01:54:11.121Z,79.70
2023-02-02T01:59:17.710Z,79.74
2023-02-02T02:04:24.215Z,79.63
2023-02-02T02:09:29.887Z,79.66
2023-02-02T02:14:52.438Z,79.66
2023-02-02T02:20:28.641Z,79.67
2023-02-02T02:26:02.062Z,79.75
2023-02-02T02:31:24.791Z,79.85
2023-02-02T02:36:36.213Z,79.79
2023-02-02T02:41:45.433Z,79.91
2023-02-02T02:46:51.757Z,79.95
2023-02-02T02:51:57.691Z,79.95
2023-02-02T02:57:14.559Z,80.12
2023-02-02T03:02:26.764Z,80.06
2023-02-02T03:07:36.230Z,80.16
2023-02-02T03:12:47.036Z,80.14
2023-02-02T03:17:53.802Z,80.06
2023-02-02T03:22:59.316Z,80.01
2023-02-02T03:28:05.611Z,80.09
2023-02-02T03:33:11.866Z,80.11
2023-02-02T03:38:17.309Z,80.14
2023-02-02T03:43:23.713Z,80.18
2023-02-02T03:48:29.277Z,80.17
2023-02-02T03:53:35.559Z,80.12
2023-02-02T03:58:41.122Z,80.14
2023-02-02T04:03:47.314Z,80.23
2023-02-02T04:08:52.799Z,80.25
2023-02-02T04:13:58.397Z,80.30
2023-02-02T04:19:03.844Z,80.11
2023-02-02T04:24:12.182Z,80.08
2023-02-02T04:29:17.645Z,80.10
2023-02-02T04:34:23.092Z,80.24
2023-02-02T04:39:28.686Z,80.30
2023-02-02T04:44:34.323Z,80.34
2023-02-02T04:49:39.947Z,80.24
2023-02-02T04:54:45.426Z,80.19
2023-02-02T04:59:50.967Z,80.14
2023-02-02T05:04:56.520Z,80.22
2023-02-02T05:10:02.070Z,80.21
2023-02-02T05:15:08.480Z,80.27
2023-02-02T05:20:14.526Z,80.35
2023-02-02T05:25:20.203Z,80.29
2023-02-02T05:30:25.931Z,80.33
2023-02-02T05:35:31.376Z,80.40
2023-02-02T05:40:36.907Z,80.46
2023-02-02T05:45:42.661Z,80.46
2023-02-02T05:50:50.079Z,80.56
2023-02-02T05:55:55.642Z,80.56
2023-02-02T06:01:01.197Z,80.52
2023-02-02T06:06:07.359Z,80.54
2023-02-02T06:11:13.127Z,80.61
2023-02-02T06:16:18.748Z,80.66
2023-02-02T06:21:24.937Z,80.66
2023-02-02T06:26:30.668Z,80.68
2023-02-02T06:31:36.316Z,80.70
2023-02-02T06:36:42.442Z,80.71
2023-02-02T06:41:48.774Z,80.67
2023-02-02T06:46:54.378Z,80.66
2023-02-02T06:51:59.822Z,80.71
2023-02-02T06:57:05.414Z,80.90
2023-02-02T07:02:13.334Z,80.93
2023-02-02T07:07:18.794Z,80.92
2023-02-02T07:12:24.604Z,80.80
2023-02-02T07:17:30.670Z,80.79
2023-02-02T07:22:39.475Z,80.85
2023-02-02T07:27:44.953Z,80.96
2023-02-02T07:32:50.983Z,81.06
2023-02-02T07:37:56.783Z,81.07
2023-02-02T07:43:02.661Z,81.01
2023-02-02T07:48:08.858Z,81.11
2023-02-02T07:53:14.834Z,81.07
2023-02-02T07:58:20.379Z,81.09
2023-02-02T08:03:25.928Z,81.18
2023-02-02T08:08:31.556Z,81.06
2023-02-02T08:13:37.101Z,81.14
2023-02-02T08:18:46.434Z,81.23
2023-02-02T08:23:53.309Z,81.32
2023-02-02T08:29:00.388Z,81.28
2023-02-02T08:34:06.504Z,81.29
2023-02-02T08:39:14.581Z,81.26
2023-02-02T08:44:20.129Z,81.37
2023-02-02T08:49:29.299Z,81.29
2023-02-02T08:54:35.080Z,81.17
2023-02-02T08:59:40.692Z,81.12
2023-02-02T09:04:47.197Z,81.11
2023-02-02T09:09:55.893Z,81.13
2023-02-02T09:15:01.647Z,81.11
2023-02-02T09:20:09.002Z,81.25
2023-02-02T09:25:15.314Z,81.09
2023-02-02T09:30:21.282Z,80.94
2023-02-02T09:35:27.323Z,80.91
2023-02-02T09:40:35.757Z,80.86
2023-02-02T09:45:47.610Z,80.73
2023-02-02T09:50:55.060Z,80.76
2023-02-02T09:56:02.161Z,80.75
2023-02-02T10:01:10.755Z,80.90
2023-02-02T10:06:28.515Z,80.78
2023-02-02T10:11:37.634Z,80.70
2023-02-02T10:16:43.581Z,80.60
2023-02-02T10:21:53.183Z,80.71
2023-02-02T10:27:04.251Z,80.78
2023-02-02T10:32:17.184Z,80.66
2023-02-02T10:37:30.451Z,81.65
2023-02-02T10:42:42.192Z,82.57
2023-02-02T10:47:48.134Z,81.37
2023-02-02T10:52:57.192Z,80.12
2023-02-02T10:58:08.067Z,79.25
2023-02-02T11:03:15.148Z,79.08
2023-02-02T11:08:22.015Z,79.02
2023-02-02T11:13:32.673Z,78.98
2023-02-02T11:18:38.483Z,78.80
2023-02-02T11:23:52.218Z,79.16
2023-02-02T11:29:00.017Z,79.29
2023-02-02T11:34:20.260Z,79.46
2023-02-02T11:39:26.364Z,79.05
2023-02-02T11:44:34.308Z,78.94
2023-02-02T11:49:44.410Z,78.51
2023-02-02T11:54:51.351Z,78.48
2023-02-02T12:00:16.555Z,78.50
2023-02-02T12:05:35.621Z,78.56
2023-02-02T12:12:36.651Z,78.40
2023-02-02T12:17:46.209Z,78.33
2023-02-02T12:23:10.303Z,78.44
2023-02-02T12:28:34.871Z,78.33
2023-02-02T12:33:49.497Z,78.53
2023-02-02T12:39:19.845Z,78.75
2023-02-02T12:44:33.821Z,78.65
2023-02-02T12:49:54.523Z,78.53
2023-02-02T12:55:11.466Z,78.47
2023-02-02T13:00:34.799Z,78.47
2023-02-02T13:05:55.361Z,78.45
2023-02-02T13:11:06.600Z,78.37
2023-02-02T13:16:15.657Z,78.51
2023-02-02T13:21:25.343Z,78.59
2023-02-02T13:26:38.894Z,78.45
2023-02-02T13:31:53.095Z,78.32
2023-02-02T13:37:06.124Z,78.08
2023-02-02T13:42:20.982Z,77.52
2023-02-02T13:47:35.852Z,77.54
2023-02-02T13:53:07.473Z,77.50
2023-02-02T13:58:36.346Z,77.53
2023-02-02T14:03:52.955Z,77.26
2023-02-02T14:09:03.255Z,77.23
2023-02-02T14:14:33.479Z,77.28
2023-02-02T14:19:58.425Z,76.97
2023-02-02T14:25:26.487Z,76.66
2023-02-02T14:30:38.671Z,76.51
2023-02-02T14:36:14.132Z,76.53
2023-02-02T14:41:43.039Z,76.60
2023-02-02T14:46:50.225Z,76.42
2023-02-02T14:52:05.461Z,76.40
2023-02-02T14:57:27.357Z,76.39
2023-02-02T15:02:37.935Z,76.52
2023-02-02T15:08:07.170Z,76.36
2023-02-02T15:13:19.210Z,76.32
2023-02-02T15:18:33.435Z,76.39
2023-02-02T15:23:45.110Z,76.18
2023-02-02T15:29:06.954Z,76.31
2023-02-02T15:34:22.484Z,76.22
2023-02-02T15:39:34.432Z,76.09
2023-02-02T15:44:41.891Z,76.31
2023-02-02T15:49:49.919Z,76.37
2023-02-02T15:54:56.073Z,76.40
2023-02-02T16:00:23.570Z,76.50
2023-02-02T16:05:46.047Z,76.48
2023-02-02T16:11:02.569Z,76.65
2023-02-02T16:16:25.273Z,76.60
2023-02-02T16:21:33.308Z,76.65
2023-02-02T16:26:38.865Z,76.70
2023-02-02T16:31:46.981Z,76.55
2023-02-02T16:37:14.533Z,76.45
2023-02-02T16:42:28.622Z,76.36
2023-02-02T16:47:40.454Z,76.35
2023-02-02T16:52:54.860Z,76.47
2023-02-02T16:58:05.009Z,76.64
2023-02-02T17:03:19.503Z,76.47
2023-02-02T17:08:32.066Z,76.51
2023-02-02T17:13:42.377Z,76.49
2023-02-02T17:18:49.769Z,76.47
2023-02-02T17:23:56.996Z,76.62
2023-02-02T17:29:05.417Z,76.56
2023-02-02T17:34:16.013Z,76.70
2023-02-02T17:39:23.167Z,76.69
2023-02-02T17:44:30.430Z,76.74
2023-02-02T17:49:37.705Z,76.78
2023-02-02T17:54:44.926Z,76.67
2023-02-02T17:59:52.071Z,76.68
2023-02-02T18:04:59.323Z,76.71
2023-02-02T18:10:07.858Z,76.71
2023-02-02T18:15:16.321Z,76.62
2023-02-02T18:20:23.810Z,76.79
2023-02-02T18:25:31.112Z,76.83
2023-02-02T18:30:41.098Z,76.73
2023-02-02T18:35:49.639Z,76.70
2023-02-02T18:41:02.063Z,76.64
2023-02-02T18:46:13.854Z,76.74
2023-02-02T18:51:22.205Z,76.80
2023-02-02T18:56:30.666Z,76.65
2023-02-02T19:01:38.072Z,76.42
2023-02-02T19:07:04.916Z,76.30
2023-02-02T19:12:16.409Z,76.20
2023-02-02T19:17:27.003Z,76.00
2023-02-02T19:22:34.893Z,75.95
2023-02-02T19:27:42.099Z,75.76
2023-02-02T19:32:50.266Z,75.70
2023-02-02T19:38:02.259Z,75.76
2023-02-02T19:43:22.158Z,75.81
2023-02-02T19:48:34.808Z,75.71
2023-02-02T19:53:42.674Z,75.75
2023-02-02T19:58:50.611Z,75.65
2023-02-02T20:03:58.719Z,75.72
2023-02-02T20:09:12.152Z,75.72
2023-02-02T20:14:33.228Z,75.79
2023-02-02T20:19:43.886Z,75.77
2023-02-02T20:24:51.161Z,75.75
2023-02-02T20:30:02.596Z,75.77
2023-02-02T20:35:25.629Z,75.65
2023-02-02T20:40:33.396Z,75.65
2023-02-02T20:45:39.252Z,75.58
2023-02-02T20:50:47.917Z,75.63
2023-02-02T20:55:58.356Z,75.60
2023-02-02T21:01:06.331Z,75.64
2023-02-02T21:06:13.649Z,75.75
2023-02-02T21:11:21.234Z,75.74
2023-02-02T21:16:29.672Z,75.73
2023-02-02T21:21:37.299Z,75.70
2023-02-02T21:26:44.505Z,75.96
2023-02-02T21:31:51.826Z,76.03
2023-02-02T21:37:00.116Z,75.82
2023-02-02T21:42:16.400Z,75.77
2023-02-02T21:47:36.052Z,75.81
2023-02-02T21:52:43.761Z,75.90
2023-02-02T21:57:51.517Z,75.90
2023-02-02T22:02:59.110Z,75.89
2023-02-02T22:08:22.848Z,76.02
2023-02-02T22:13:36.883Z,76.13
2023-02-02T22:18:44.422Z,76.13
2023-02-02T22:23:51.932Z,76.27
2023-02-02T22:28:59.253Z,76.22
2023-02-02T22:34:06.915Z,76.22
2023-02-02T22:39:14.333Z,76.25
2023-02-02T22:44:21.420Z,76.27
2023-02-02T22:49:28.601Z,76.35
2023-02-02T22:54:34.892Z,76.14
2023-02-02T22:59:42.046Z,76.22
2023-02-02T23:04:49.205Z,76.27
2023-02-02T23:09:56.295Z,76.31
2023-02-02T23:15:03.565Z,76.53
2023-02-02T23:20:14.043Z,76.46
2023-02-02T23:25:22.131Z,76.38
2023-02-02T23:30:29.391Z,76.44
2023-02-02T23:35:36.599Z,76.48
2023-02-02T23:40:43.783Z,76.60
2023-02-02T23:45:51.087Z,76.41
2023-02-02T23:50:58.497Z,76.50
2023-02-02T23:56:05.925Z,76.61
